sensor_id;sensor_type;location;lat;lon;timestamp;P1;durP1;ratioP1;P2;durP2;ratioP2
36585;SDS011;22591;48.314;11.562;2023-07-20T00:01:02;6.35;;;2.90;;
36585;SDS011;22591;48.314;11.562;2023-07-20T00:03:27;4.68;;;3.13;;
36585;SDS011;22591;48.314;11.562;2023-07-20T00:05:53;8.60;;;3.15;;
36585;SDS011;22591;48.314;11.562;2023-07-20T00:08:18;3.47;;;3.17;;
36585;SDS011;22591;48.314;11.562;2023-07-20T00:10:44;4.18;;;2.90;;
36585;SDS011;22591;48.314;11.562;2023-07-20T00:13:10;2.88;;;2.67;;
36585;SDS011;22591;48.314;11.562;2023-07-20T00:15:36;3.45;;;2.78;;
36585;SDS011;22591;48.314;11.562;2023-07-20T00:18:03;5.28;;;2.60;;
36585;SDS011;22591;48.314;11.562;2023-07-20T00:20:29;5.15;;;3.70;;
36585;SDS011;22591;48.314;11.562;2023-07-20T00:22:54;3.10;;;2.85;;
36585;SDS011;22591;48.314;11.562;2023-07-20T00:25:22;6.75;;;3.17;;
36585;SDS011;22591;48.314;11.562;2023-07-20T00:27:48;5.90;;;2.58;;
36585;SDS011;22591;48.314;11.562;2023-07-20T00:30:14;6.22;;;2.95;;
36585;SDS011;22591;48.314;11.562;2023-07-20T00:32:41;3.58;;;2.90;;
36585;SDS011;22591;48.314;11.562;2023-07-20T00:35:07;6.50;;;2.72;;
36585;SDS011;22591;48.314;11.562;2023-07-20T00:37:33;4.47;;;3.28;;
36585;SDS011;22591;48.314;11.562;2023-07-20T00:39:58;4.75;;;2.92;;
36585;SDS011;22591;48.314;11.562;2023-07-20T00:42:24;3.53;;;2.42;;
36585;SDS011;22591;48.314;11.562;2023-07-20T00:44:49;5.30;;;2.90;;
36585;SDS011;22591;48.314;11.562;2023-07-20T00:47:15;5.88;;;2.90;;
36585;SDS011;22591;48.314;11.562;2023-07-20T00:49:40;3.17;;;2.75;;
36585;SDS011;22591;48.314;11.562;2023-07-20T00:52:06;3.63;;;3.03;;
36585;SDS011;22591;48.314;11.562;2023-07-20T00:54:35;3.72;;;3.25;;
36585;SDS011;22591;48.314;11.562;2023-07-20T00:57:02;5.30;;;3.17;;
36585;SDS011;22591;48.314;11.562;2023-07-20T00:59:27;2.85;;;2.65;;
36585;SDS011;22591;48.314;11.562;2023-07-20T01:01:53;3.90;;;2.90;;
36585;SDS011;22591;48.314;11.562;2023-07-20T01:04:19;3.75;;;2.78;;
36585;SDS011;22591;48.314;11.562;2023-07-20T01:06:53;9.63;;;2.88;;
36585;SDS011;22591;48.314;11.562;2023-07-20T01:09:28;6.28;;;2.85;;
36585;SDS011;22591;48.314;11.562;2023-07-20T01:12:21;4.95;;;3.50;;
36585;SDS011;22591;48.314;11.562;2023-07-20T01:14:51;5.18;;;4.38;;
36585;SDS011;22591;48.314;11.562;2023-07-20T01:17:17;8.95;;;8.15;;
36585;SDS011;22591;48.314;11.562;2023-07-20T01:19:43;13.73;;;8.57;;
36585;SDS011;22591;48.314;11.562;2023-07-20T01:33:20;3.25;;;2.95;;
36585;SDS011;22591;48.314;11.562;2023-07-20T01:35:57;4.80;;;3.28;;
36585;SDS011;22591;48.314;11.562;2023-07-20T01:38:24;3.03;;;2.70;;
36585;SDS011;22591;48.314;11.562;2023-07-20T01:40:51;3.53;;;2.67;;
36585;SDS011;22591;48.314;11.562;2023-07-20T01:43:17;2.85;;;2.65;;
36585;SDS011;22591;48.314;11.562;2023-07-20T01:45:43;4.78;;;3.38;;
36585;SDS011;22591;48.314;11.562;2023-07-20T01:48:08;5.38;;;3.10;;
36585;SDS011;22591;48.314;11.562;2023-07-20T01:50:34;2.55;;;2.33;;
36585;SDS011;22591;48.314;11.562;2023-07-20T01:53:00;3.00;;;2.60;;
36585;SDS011;22591;48.314;11.562;2023-07-20T01:55:26;4.20;;;2.45;;
36585;SDS011;22591;48.314;11.562;2023-07-20T01:57:52;5.85;;;3.03;;
36585;SDS011;22591;48.314;11.562;2023-07-20T02:00:18;2.75;;;2.55;;
36585;SDS011;22591;48.314;11.562;2023-07-20T02:02:46;3.90;;;2.60;;
36585;SDS011;22591;48.314;11.562;2023-07-20T02:05:12;6.50;;;2.50;;
36585;SDS011;22591;48.314;11.562;2023-07-20T02:07:37;5.18;;;2.20;;
36585;SDS011;22591;48.314;11.562;2023-07-20T02:10:03;5.90;;;2.28;;
36585;SDS011;22591;48.314;11.562;2023-07-20T02:12:29;2.13;;;2.03;;
36585;SDS011;22591;48.314;11.562;2023-07-20T02:14:54;5.85;;;2.65;;
36585;SDS011;22591;48.314;11.562;2023-07-20T02:17:20;4.43;;;2.65;;
36585;SDS011;22591;48.314;11.562;2023-07-20T02:19:46;6.10;;;2.63;;
36585;SDS011;22591;48.314;11.562;2023-07-20T02:22:14;6.05;;;2.28;;
36585;SDS011;22591;48.314;11.562;2023-07-20T02:24:40;6.40;;;2.53;;
36585;SDS011;22591;48.314;11.562;2023-07-20T02:27:05;3.33;;;2.85;;
36585;SDS011;22591;48.314;11.562;2023-07-20T02:29:32;7.32;;;2.85;;
36585;SDS011;22591;48.314;11.562;2023-07-20T02:31:57;4.68;;;3.05;;
36585;SDS011;22591;48.314;11.562;2023-07-20T02:34:23;2.72;;;2.50;;
36585;SDS011;22591;48.314;11.562;2023-07-20T02:36:49;3.97;;;2.25;;
36585;SDS011;22591;48.314;11.562;2023-07-20T02:39:14;5.07;;;2.30;;
36585;SDS011;22591;48.314;11.562;2023-07-20T02:41:41;4.78;;;2.80;;
36585;SDS011;22591;48.314;11.562;2023-07-20T02:44:06;2.58;;;1.90;;
36585;SDS011;22591;48.314;11.562;2023-07-20T02:46:32;5.43;;;2.42;;
36585;SDS011;22591;48.314;11.562;2023-07-20T02:48:59;3.25;;;2.25;;
36585;SDS011;22591;48.314;11.562;2023-07-20T02:51:24;3.03;;;2.25;;
36585;SDS011;22591;48.314;11.562;2023-07-20T02:53:50;3.88;;;1.98;;
36585;SDS011;22591;48.314;11.562;2023-07-20T02:56:15;3.47;;;2.30;;
36585;SDS011;22591;48.314;11.562;2023-07-20T02:58:42;7.18;;;2.05;;
36585;SDS011;22591;48.314;11.562;2023-07-20T03:01:08;4.15;;;1.88;;
36585;SDS011;22591;48.314;11.562;2023-07-20T03:03:35;2.03;;;1.92;;
36585;SDS011;22591;48.314;11.562;2023-07-20T03:06:04;5.47;;;1.60;;
36585;SDS011;22591;48.314;11.562;2023-07-20T03:08:30;3.08;;;1.92;;
36585;SDS011;22591;48.314;11.562;2023-07-20T03:10:55;2.90;;;2.03;;
36585;SDS011;22591;48.314;11.562;2023-07-20T03:13:21;2.92;;;1.42;;
36585;SDS011;22591;48.314;11.562;2023-07-20T03:15:46;4.47;;;1.65;;
36585;SDS011;22591;48.314;11.562;2023-07-20T03:18:12;4.13;;;2.20;;
36585;SDS011;22591;48.314;11.562;2023-07-20T03:20:38;1.85;;;1.60;;
36585;SDS011;22591;48.314;11.562;2023-07-20T03:23:03;3.60;;;1.70;;
36585;SDS011;22591;48.314;11.562;2023-07-20T03:25:29;2.92;;;1.83;;
36585;SDS011;22591;48.314;11.562;2023-07-20T03:27:54;2.88;;;1.67;;
36585;SDS011;22591;48.314;11.562;2023-07-20T03:30:20;3.97;;;1.75;;
36585;SDS011;22591;48.314;11.562;2023-07-20T03:32:46;2.05;;;1.77;;
36585;SDS011;22591;48.314;11.562;2023-07-20T03:35:11;3.90;;;1.67;;
36585;SDS011;22591;48.314;11.562;2023-07-20T03:37:37;1.70;;;1.60;;
36585;SDS011;22591;48.314;11.562;2023-07-20T03:40:03;2.95;;;1.50;;
36585;SDS011;22591;48.314;11.562;2023-07-20T03:42:30;1.88;;;1.67;;
36585;SDS011;22591;48.314;11.562;2023-07-20T03:44:55;2.95;;;2.10;;
36585;SDS011;22591;48.314;11.562;2023-07-20T03:47:21;2.20;;;1.60;;
36585;SDS011;22591;48.314;11.562;2023-07-20T03:49:47;2.53;;;1.95;;
36585;SDS011;22591;48.314;11.562;2023-07-20T03:52:12;4.18;;;1.98;;
36585;SDS011;22591;48.314;11.562;2023-07-20T03:54:38;3.83;;;2.33;;
36585;SDS011;22591;48.314;11.562;2023-07-20T03:57:03;2.30;;;2.10;;
36585;SDS011;22591;48.314;11.562;2023-07-20T03:59:29;2.13;;;1.92;;
36585;SDS011;22591;48.314;11.562;2023-07-20T04:01:55;2.65;;;2.42;;
36585;SDS011;22591;48.314;11.562;2023-07-20T04:04:20;2.28;;;1.83;;
36585;SDS011;22591;48.314;11.562;2023-07-20T04:06:46;4.38;;;1.70;;
36585;SDS011;22591;48.314;11.562;2023-07-20T04:09:11;2.50;;;1.90;;
36585;SDS011;22591;48.314;11.562;2023-07-20T04:11:37;2.17;;;1.88;;
36585;SDS011;22591;48.314;11.562;2023-07-20T04:14:03;3.90;;;1.80;;
36585;SDS011;22591;48.314;11.562;2023-07-20T04:16:29;6.70;;;2.08;;
36585;SDS011;22591;48.314;11.562;2023-07-20T04:18:55;2.08;;;1.70;;
36585;SDS011;22591;48.314;11.562;2023-07-20T04:21:21;4.03;;;1.80;;
36585;SDS011;22591;48.314;11.562;2023-07-20T04:23:47;1.85;;;1.75;;
36585;SDS011;22591;48.314;11.562;2023-07-20T04:26:13;1.85;;;1.65;;
36585;SDS011;22591;48.314;11.562;2023-07-20T04:28:39;1.92;;;1.83;;
36585;SDS011;22591;48.314;11.562;2023-07-20T04:31:13;2.40;;;2.20;;
36585;SDS011;22591;48.314;11.562;2023-07-20T04:33:40;4.30;;;1.98;;
36585;SDS011;22591;48.314;11.562;2023-07-20T04:36:06;5.50;;;2.10;;
36585;SDS011;22591;48.314;11.562;2023-07-20T04:38:32;4.38;;;2.30;;
36585;SDS011;22591;48.314;11.562;2023-07-20T04:40:58;4.32;;;2.55;;
36585;SDS011;22591;48.314;11.562;2023-07-20T04:43:24;3.40;;;2.25;;
36585;SDS011;22591;48.314;11.562;2023-07-20T04:45:49;4.55;;;2.00;;
36585;SDS011;22591;48.314;11.562;2023-07-20T04:48:16;3.90;;;2.10;;
36585;SDS011;22591;48.314;11.562;2023-07-20T04:50:42;2.47;;;1.73;;
36585;SDS011;22591;48.314;11.562;2023-07-20T04:53:09;2.35;;;2.13;;
36585;SDS011;22591;48.314;11.562;2023-07-20T04:55:36;3.60;;;2.25;;
36585;SDS011;22591;48.314;11.562;2023-07-20T04:58:02;2.28;;;2.08;;
36585;SDS011;22591;48.314;11.562;2023-07-20T05:00:34;2.45;;;2.00;;
36585;SDS011;22591;48.314;11.562;2023-07-20T05:03:02;3.10;;;2.25;;
36585;SDS011;22591;48.314;11.562;2023-07-20T05:05:30;2.22;;;1.83;;
36585;SDS011;22591;48.314;11.562;2023-07-20T05:07:55;4.07;;;2.17;;
36585;SDS011;22591;48.314;11.562;2023-07-20T05:10:21;3.75;;;1.75;;
36585;SDS011;22591;48.314;11.562;2023-07-20T05:12:46;5.53;;;1.73;;
36585;SDS011;22591;48.314;11.562;2023-07-20T05:15:12;3.20;;;2.50;;
36585;SDS011;22591;48.314;11.562;2023-07-20T05:17:37;2.40;;;2.20;;
36585;SDS011;22591;48.314;11.562;2023-07-20T05:20:04;3.05;;;2.10;;
36585;SDS011;22591;48.314;11.562;2023-07-20T05:22:30;3.53;;;1.95;;
36585;SDS011;22591;48.314;11.562;2023-07-20T05:24:56;2.83;;;1.90;;
36585;SDS011;22591;48.314;11.562;2023-07-20T05:27:21;3.38;;;1.70;;
36585;SDS011;22591;48.314;11.562;2023-07-20T05:29:47;4.60;;;2.35;;
36585;SDS011;22591;48.314;11.562;2023-07-20T05:32:13;3.15;;;1.70;;
36585;SDS011;22591;48.314;11.562;2023-07-20T05:34:39;2.40;;;2.17;;
36585;SDS011;22591;48.314;11.562;2023-07-20T05:37:05;3.45;;;2.25;;
36585;SDS011;22591;48.314;11.562;2023-07-20T05:39:32;4.35;;;1.90;;
36585;SDS011;22591;48.314;11.562;2023-07-20T05:41:58;2.67;;;1.90;;
36585;SDS011;22591;48.314;11.562;2023-07-20T05:44:23;4.55;;;2.30;;
36585;SDS011;22591;48.314;11.562;2023-07-20T05:46:49;3.22;;;2.20;;
36585;SDS011;22591;48.314;11.562;2023-07-20T05:49:14;2.25;;;2.08;;
36585;SDS011;22591;48.314;11.562;2023-07-20T05:51:40;2.30;;;2.10;;
36585;SDS011;22591;48.314;11.562;2023-07-20T05:54:05;3.50;;;1.90;;
36585;SDS011;22591;48.314;11.562;2023-07-20T05:56:31;3.38;;;2.15;;
36585;SDS011;22591;48.314;11.562;2023-07-20T05:58:57;5.07;;;2.30;;
36585;SDS011;22591;48.314;11.562;2023-07-20T06:01:22;3.53;;;2.10;;
36585;SDS011;22591;48.314;11.562;2023-07-20T06:03:48;2.22;;;1.85;;
36585;SDS011;22591;48.314;11.562;2023-07-20T06:06:13;3.83;;;2.28;;
36585;SDS011;22591;48.314;11.562;2023-07-20T06:08:39;3.22;;;2.05;;
36585;SDS011;22591;48.314;11.562;2023-07-20T06:11:05;4.40;;;1.88;;
36585;SDS011;22591;48.314;11.562;2023-07-20T06:13:31;2.72;;;1.92;;
36585;SDS011;22591;48.314;11.562;2023-07-20T06:15:56;3.40;;;2.15;;
36585;SDS011;22591;48.314;11.562;2023-07-20T06:18:22;4.97;;;2.00;;
36585;SDS011;22591;48.314;11.562;2023-07-20T06:20:49;2.35;;;1.85;;
36585;SDS011;22591;48.314;11.562;2023-07-20T06:23:15;2.15;;;1.92;;
36585;SDS011;22591;48.314;11.562;2023-07-20T06:25:41;5.00;;;2.40;;
36585;SDS011;22591;48.314;11.562;2023-07-20T06:28:06;4.13;;;1.80;;
36585;SDS011;22591;48.314;11.562;2023-07-20T06:30:33;7.72;;;1.70;;
36585;SDS011;22591;48.314;11.562;2023-07-20T06:32:59;7.47;;;2.28;;
36585;SDS011;22591;48.314;11.562;2023-07-20T06:35:25;1.85;;;1.75;;
36585;SDS011;22591;48.314;11.562;2023-07-20T06:37:51;2.83;;;1.83;;
36585;SDS011;22591;48.314;11.562;2023-07-20T06:40:17;3.63;;;2.22;;
36585;SDS011;22591;48.314;11.562;2023-07-20T06:42:42;2.42;;;1.92;;
36585;SDS011;22591;48.314;11.562;2023-07-20T06:45:08;3.60;;;1.98;;
36585;SDS011;22591;48.314;11.562;2023-07-20T06:47:34;1.98;;;1.88;;
36585;SDS011;22591;48.314;11.562;2023-07-20T06:49:59;3.50;;;1.70;;
36585;SDS011;22591;48.314;11.562;2023-07-20T06:52:25;3.25;;;1.83;;
36585;SDS011;22591;48.314;11.562;2023-07-20T06:54:51;2.63;;;1.85;;
36585;SDS011;22591;48.314;11.562;2023-07-20T06:57:16;3.08;;;2.20;;
36585;SDS011;22591;48.314;11.562;2023-07-20T06:59:42;1.95;;;1.77;;
36585;SDS011;22591;48.314;11.562;2023-07-20T07:02:08;3.63;;;2.10;;
36585;SDS011;22591;48.314;11.562;2023-07-20T07:04:33;2.63;;;2.17;;
36585;SDS011;22591;48.314;11.562;2023-07-20T07:06:59;1.88;;;1.73;;
36585;SDS011;22591;48.314;11.562;2023-07-20T07:09:25;1.90;;;1.73;;
36585;SDS011;22591;48.314;11.562;2023-07-20T07:11:50;3.08;;;1.80;;
36585;SDS011;22591;48.314;11.562;2023-07-20T07:14:18;2.65;;;1.83;;
36585;SDS011;22591;48.314;11.562;2023-07-20T07:16:45;2.67;;;2.13;;
36585;SDS011;22591;48.314;11.562;2023-07-20T07:19:10;2.17;;;1.95;;
36585;SDS011;22591;48.314;11.562;2023-07-20T07:21:36;3.00;;;1.85;;
36585;SDS011;22591;48.314;11.562;2023-07-20T07:24:01;2.33;;;1.70;;
36585;SDS011;22591;48.314;11.562;2023-07-20T07:26:27;2.38;;;2.03;;
36585;SDS011;22591;48.314;11.562;2023-07-20T07:28:52;3.15;;;2.00;;
36585;SDS011;22591;48.314;11.562;2023-07-20T07:31:18;2.78;;;1.85;;
36585;SDS011;22591;48.314;11.562;2023-07-20T07:33:44;3.03;;;2.13;;
36585;SDS011;22591;48.314;11.562;2023-07-20T07:36:09;2.00;;;1.85;;
36585;SDS011;22591;48.314;11.562;2023-07-20T07:38:35;1.88;;;1.65;;
36585;SDS011;22591;48.314;11.562;2023-07-20T07:41:00;2.55;;;1.70;;
36585;SDS011;22591;48.314;11.562;2023-07-20T07:43:26;2.17;;;1.48;;
36585;SDS011;22591;48.314;11.562;2023-07-20T07:45:53;2.03;;;1.83;;
36585;SDS011;22591;48.314;11.562;2023-07-20T07:48:19;3.70;;;1.80;;
36585;SDS011;22591;48.314;11.562;2023-07-20T07:50:46;3.95;;;1.58;;
36585;SDS011;22591;48.314;11.562;2023-07-20T07:53:11;5.57;;;2.08;;
36585;SDS011;22591;48.314;11.562;2023-07-20T07:55:37;2.17;;;1.50;;
36585;SDS011;22591;48.314;11.562;2023-07-20T07:58:03;3.05;;;1.50;;
36585;SDS011;22591;48.314;11.562;2023-07-20T08:00:29;1.90;;;1.70;;
36585;SDS011;22591;48.314;11.562;2023-07-20T08:02:54;3.13;;;1.73;;
36585;SDS011;22591;48.314;11.562;2023-07-20T08:05:20;5.40;;;1.92;;
36585;SDS011;22591;48.314;11.562;2023-07-20T08:07:45;1.80;;;1.58;;
36585;SDS011;22591;48.314;11.562;2023-07-20T08:10:11;3.40;;;1.65;;
36585;SDS011;22591;48.314;11.562;2023-07-20T08:12:37;2.60;;;1.70;;
36585;SDS011;22591;48.314;11.562;2023-07-20T08:15:02;3.42;;;2.00;;
36585;SDS011;22591;48.314;11.562;2023-07-20T08:17:29;3.00;;;1.88;;
36585;SDS011;22591;48.314;11.562;2023-07-20T08:19:54;1.63;;;1.50;;
36585;SDS011;22591;48.314;11.562;2023-07-20T08:22:20;3.45;;;1.83;;
36585;SDS011;22591;48.314;11.562;2023-07-20T08:24:45;5.22;;;1.80;;
36585;SDS011;22591;48.314;11.562;2023-07-20T08:27:11;1.60;;;1.50;;
36585;SDS011;22591;48.314;11.562;2023-07-20T08:29:37;5.45;;;1.90;;
36585;SDS011;22591;48.314;11.562;2023-07-20T08:32:03;3.20;;;1.70;;
36585;SDS011;22591;48.314;11.562;2023-07-20T08:34:29;2.28;;;1.60;;
36585;SDS011;22591;48.314;11.562;2023-07-20T08:36:55;5.70;;;2.10;;
36585;SDS011;22591;48.314;11.562;2023-07-20T08:39:22;2.65;;;1.75;;
36585;SDS011;22591;48.314;11.562;2023-07-20T08:41:48;2.17;;;1.88;;
36585;SDS011;22591;48.314;11.562;2023-07-20T08:44:14;4.35;;;1.98;;
36585;SDS011;22591;48.314;11.562;2023-07-20T08:46:40;3.47;;;1.85;;
36585;SDS011;22591;48.314;11.562;2023-07-20T08:49:05;2.25;;;1.65;;
36585;SDS011;22591;48.314;11.562;2023-07-20T08:51:31;4.05;;;1.90;;
36585;SDS011;22591;48.314;11.562;2023-07-20T08:53:59;5.72;;;1.80;;
36585;SDS011;22591;48.314;11.562;2023-07-20T08:56:25;2.05;;;1.88;;
36585;SDS011;22591;48.314;11.562;2023-07-20T08:58:54;2.42;;;1.55;;
36585;SDS011;22591;48.314;11.562;2023-07-20T09:01:21;2.38;;;1.63;;
36585;SDS011;22591;48.314;11.562;2023-07-20T09:03:47;2.00;;;1.75;;
36585;SDS011;22591;48.314;11.562;2023-07-20T09:06:13;1.92;;;1.50;;
36585;SDS011;22591;48.314;11.562;2023-07-20T09:08:40;1.63;;;1.52;;
36585;SDS011;22591;48.314;11.562;2023-07-20T09:11:06;3.13;;;1.42;;
36585;SDS011;22591;48.314;11.562;2023-07-20T09:13:32;2.40;;;1.88;;
36585;SDS011;22591;48.314;11.562;2023-07-20T09:15:58;3.13;;;1.95;;
36585;SDS011;22591;48.314;11.562;2023-07-20T09:18:28;1.75;;;1.65;;
36585;SDS011;22591;48.314;11.562;2023-07-20T09:20:58;4.47;;;2.10;;
36585;SDS011;22591;48.314;11.562;2023-07-20T09:23:29;2.22;;;1.85;;
36585;SDS011;22591;48.314;11.562;2023-07-20T09:25:59;2.00;;;1.83;;
36585;SDS011;22591;48.314;11.562;2023-07-20T09:28:25;1.90;;;1.80;;
36585;SDS011;22591;48.314;11.562;2023-07-20T09:30:51;2.95;;;1.60;;
36585;SDS011;22591;48.314;11.562;2023-07-20T09:33:22;2.10;;;1.90;;
36585;SDS011;22591;48.314;11.562;2023-07-20T09:35:48;2.45;;;1.90;;
36585;SDS011;22591;48.314;11.562;2023-07-20T09:38:14;2.90;;;1.92;;
36585;SDS011;22591;48.314;11.562;2023-07-20T09:40:40;2.83;;;1.63;;
36585;SDS011;22591;48.314;11.562;2023-07-20T09:43:09;2.85;;;1.70;;
36585;SDS011;22591;48.314;11.562;2023-07-20T09:45:35;1.75;;;1.40;;
36585;SDS011;22591;48.314;11.562;2023-07-20T09:48:05;1.83;;;1.67;;
36585;SDS011;22591;48.314;11.562;2023-07-20T09:50:41;2.13;;;1.60;;
36585;SDS011;22591;48.314;11.562;2023-07-20T09:53:17;3.13;;;1.58;;
36585;SDS011;22591;48.314;11.562;2023-07-20T09:55:43;1.33;;;1.23;;
36585;SDS011;22591;48.314;11.562;2023-07-20T09:58:10;2.03;;;1.80;;
36585;SDS011;22591;48.314;11.562;2023-07-20T10:00:36;1.73;;;1.55;;
36585;SDS011;22591;48.314;11.562;2023-07-20T10:03:04;2.50;;;1.75;;
36585;SDS011;22591;48.314;11.562;2023-07-20T10:05:34;3.90;;;2.13;;
36585;SDS011;22591;48.314;11.562;2023-07-20T10:08:02;1.88;;;1.50;;
36585;SDS011;22591;48.314;11.562;2023-07-20T10:10:30;4.65;;;1.58;;
36585;SDS011;22591;48.314;11.562;2023-07-20T10:12:58;1.75;;;1.65;;
36585;SDS011;22591;48.314;11.562;2023-07-20T10:15:34;2.55;;;1.75;;
36585;SDS011;22591;48.314;11.562;2023-07-20T10:18:14;1.80;;;1.70;;
36585;SDS011;22591;48.314;11.562;2023-07-20T10:20:54;4.10;;;2.00;;
36585;SDS011;22591;48.314;11.562;2023-07-20T10:23:21;2.67;;;1.90;;
36585;SDS011;22591;48.314;11.562;2023-07-20T10:25:48;4.10;;;1.67;;
36585;SDS011;22591;48.314;11.562;2023-07-20T10:28:15;3.40;;;1.90;;
36585;SDS011;22591;48.314;11.562;2023-07-20T10:30:41;1.83;;;1.63;;
36585;SDS011;22591;48.314;11.562;2023-07-20T10:33:07;2.03;;;1.80;;
36585;SDS011;22591;48.314;11.562;2023-07-20T10:41:18;2.58;;;1.95;;
36585;SDS011;22591;48.314;11.562;2023-07-20T10:43:45;2.08;;;1.60;;
36585;SDS011;22591;48.314;11.562;2023-07-20T10:46:12;1.80;;;1.70;;
36585;SDS011;22591;48.314;11.562;2023-07-20T10:51:30;2.13;;;1.92;;
36585;SDS011;22591;48.314;11.562;2023-07-20T10:54:03;1.70;;;1.60;;
36585;SDS011;22591;48.314;11.562;2023-07-20T10:56:42;1.80;;;1.70;;
36585;SDS011;22591;48.314;11.562;2023-07-20T10:59:18;4.35;;;2.05;;
36585;SDS011;22591;48.314;11.562;2023-07-20T11:02:00;5.25;;;1.83;;
36585;SDS011;22591;48.314;11.562;2023-07-20T11:04:38;3.08;;;1.60;;
36585;SDS011;22591;48.314;11.562;2023-07-20T11:07:04;1.67;;;1.58;;
36585;SDS011;22591;48.314;11.562;2023-07-20T11:09:33;3.40;;;1.88;;
36585;SDS011;22591;48.314;11.562;2023-07-20T11:12:09;2.60;;;1.90;;
36585;SDS011;22591;48.314;11.562;2023-07-20T11:14:57;2.17;;;1.77;;
36585;SDS011;22591;48.314;11.562;2023-07-20T11:17:29;1.80;;;1.58;;
36585;SDS011;22591;48.314;11.562;2023-07-20T11:19:55;2.72;;;1.50;;
36585;SDS011;22591;48.314;11.562;2023-07-20T11:22:22;2.58;;;1.58;;
36585;SDS011;22591;48.314;11.562;2023-07-20T11:24:48;2.47;;;1.65;;
36585;SDS011;22591;48.314;11.562;2023-07-20T11:27:14;2.80;;;1.95;;
36585;SDS011;22591;48.314;11.562;2023-07-20T11:29:40;2.17;;;1.75;;
36585;SDS011;22591;48.314;11.562;2023-07-20T11:32:06;2.20;;;1.52;;
36585;SDS011;22591;48.314;11.562;2023-07-20T11:34:32;2.63;;;1.58;;
36585;SDS011;22591;48.314;11.562;2023-07-20T11:36:58;5.25;;;1.55;;
36585;SDS011;22591;48.314;11.562;2023-07-20T11:39:24;1.58;;;1.48;;
36585;SDS011;22591;48.314;11.562;2023-07-20T11:41:54;2.10;;;1.80;;
36585;SDS011;22591;48.314;11.562;2023-07-20T11:44:21;4.57;;;1.58;;
36585;SDS011;22591;48.314;11.562;2023-07-20T11:47:13;1.80;;;1.70;;
36585;SDS011;22591;48.314;11.562;2023-07-20T11:49:41;2.75;;;1.70;;
36585;SDS011;22591;48.314;11.562;2023-07-20T11:52:08;2.08;;;1.60;;
36585;SDS011;22591;48.314;11.562;2023-07-20T11:54:37;1.70;;;1.33;;
36585;SDS011;22591;48.314;11.562;2023-07-20T11:57:04;2.00;;;1.30;;
36585;SDS011;22591;48.314;11.562;2023-07-20T11:59:30;2.15;;;1.63;;
36585;SDS011;22591;48.314;11.562;2023-07-20T12:01:56;2.38;;;1.95;;
36585;SDS011;22591;48.314;11.562;2023-07-20T12:04:22;1.55;;;1.30;;
36585;SDS011;22591;48.314;11.562;2023-07-20T12:06:48;3.67;;;2.33;;
36585;SDS011;22591;48.314;11.562;2023-07-20T12:09:14;1.70;;;1.50;;
36585;SDS011;22591;48.314;11.562;2023-07-20T12:11:42;1.65;;;1.55;;
36585;SDS011;22591;48.314;11.562;2023-07-20T12:14:12;3.75;;;2.45;;
36585;SDS011;22591;48.314;11.562;2023-07-20T12:16:38;3.50;;;1.90;;
36585;SDS011;22591;48.314;11.562;2023-07-20T12:21:34;1.75;;;1.60;;
36585;SDS011;22591;48.314;11.562;2023-07-20T12:24:01;3.42;;;1.73;;
36585;SDS011;22591;48.314;11.562;2023-07-20T12:26:28;1.85;;;1.50;;
36585;SDS011;22591;48.314;11.562;2023-07-20T12:28:55;1.45;;;1.40;;
36585;SDS011;22591;48.314;11.562;2023-07-20T12:31:21;1.95;;;1.73;;
36585;SDS011;22591;48.314;11.562;2023-07-20T12:33:48;1.40;;;1.30;;
36585;SDS011;22591;48.314;11.562;2023-07-20T12:36:14;1.45;;;1.35;;
36585;SDS011;22591;48.314;11.562;2023-07-20T12:38:40;2.80;;;1.88;;
36585;SDS011;22591;48.314;11.562;2023-07-20T12:41:06;2.10;;;1.70;;
36585;SDS011;22591;48.314;11.562;2023-07-20T12:43:32;1.90;;;1.80;;
36585;SDS011;22591;48.314;11.562;2023-07-20T12:45:58;1.95;;;1.75;;
36585;SDS011;22591;48.314;11.562;2023-07-20T12:48:24;2.65;;;1.73;;
36585;SDS011;22591;48.314;11.562;2023-07-20T12:50:49;1.80;;;1.52;;
36585;SDS011;22591;48.314;11.562;2023-07-20T12:53:15;2.05;;;1.42;;
36585;SDS011;22591;48.314;11.562;2023-07-20T12:55:41;1.90;;;1.77;;
36585;SDS011;22591;48.314;11.562;2023-07-20T12:58:07;1.95;;;1.70;;
36585;SDS011;22591;48.314;11.562;2023-07-20T13:00:33;3.42;;;1.70;;
36585;SDS011;22591;48.314;11.562;2023-07-20T13:02:58;2.47;;;1.50;;
36585;SDS011;22591;48.314;11.562;2023-07-20T13:05:24;2.17;;;1.98;;
36585;SDS011;22591;48.314;11.562;2023-07-20T13:07:50;1.45;;;1.35;;
36585;SDS011;22591;48.314;11.562;2023-07-20T13:10:15;2.55;;;1.50;;
36585;SDS011;22591;48.314;11.562;2023-07-20T13:12:41;2.28;;;1.73;;
36585;SDS011;22591;48.314;11.562;2023-07-20T13:15:07;2.45;;;1.48;;
36585;SDS011;22591;48.314;11.562;2023-07-20T13:17:34;1.75;;;1.40;;
36585;SDS011;22591;48.314;11.562;2023-07-20T13:20:01;1.63;;;1.52;;
36585;SDS011;22591;48.314;11.562;2023-07-20T13:22:29;2.38;;;1.60;;
36585;SDS011;22591;48.314;11.562;2023-07-20T13:24:55;3.13;;;1.70;;
36585;SDS011;22591;48.314;11.562;2023-07-20T13:27:20;1.98;;;1.63;;
36585;SDS011;22591;48.314;11.562;2023-07-20T13:29:46;2.17;;;1.45;;
36585;SDS011;22591;48.314;11.562;2023-07-20T13:32:15;3.08;;;1.90;;
36585;SDS011;22591;48.314;11.562;2023-07-20T13:34:41;2.08;;;1.80;;
36585;SDS011;22591;48.314;11.562;2023-07-20T13:37:08;1.95;;;1.85;;
36585;SDS011;22591;48.314;11.562;2023-07-20T13:39:33;1.63;;;1.52;;
36585;SDS011;22591;48.314;11.562;2023-07-20T13:41:59;1.55;;;1.45;;
36585;SDS011;22591;48.314;11.562;2023-07-20T13:44:27;2.38;;;1.73;;
36585;SDS011;22591;48.314;11.562;2023-07-20T13:46:52;2.13;;;1.83;;
36585;SDS011;22591;48.314;11.562;2023-07-20T13:49:18;4.40;;;1.52;;
36585;SDS011;22591;48.314;11.562;2023-07-20T13:51:43;3.13;;;1.60;;
36585;SDS011;22591;48.314;11.562;2023-07-20T13:54:09;1.40;;;1.30;;
36585;SDS011;22591;48.314;11.562;2023-07-20T13:56:35;3.40;;;1.52;;
36585;SDS011;22591;48.314;11.562;2023-07-20T13:59:00;2.13;;;1.80;;
36585;SDS011;22591;48.314;11.562;2023-07-20T14:01:26;2.95;;;1.73;;
36585;SDS011;22591;48.314;11.562;2023-07-20T14:03:53;3.50;;;1.60;;
36585;SDS011;22591;48.314;11.562;2023-07-20T14:06:19;4.95;;;1.60;;
36585;SDS011;22591;48.314;11.562;2023-07-20T14:08:45;2.50;;;1.63;;
36585;SDS011;22591;48.314;11.562;2023-07-20T14:11:12;1.50;;;1.40;;
36585;SDS011;22591;48.314;11.562;2023-07-20T14:13:37;1.60;;;1.48;;
36585;SDS011;22591;48.314;11.562;2023-07-20T14:16:03;2.47;;;1.30;;
36585;SDS011;22591;48.314;11.562;2023-07-20T14:18:29;6.88;;;2.00;;
36585;SDS011;22591;48.314;11.562;2023-07-20T14:21:02;3.45;;;1.98;;
36585;SDS011;22591;48.314;11.562;2023-07-20T14:23:30;1.75;;;1.65;;
36585;SDS011;22591;48.314;11.562;2023-07-20T14:25:56;1.60;;;1.50;;
36585;SDS011;22591;48.314;11.562;2023-07-20T14:28:21;1.70;;;1.60;;
36585;SDS011;22591;48.314;11.562;2023-07-20T14:30:47;2.20;;;1.90;;
36585;SDS011;22591;48.314;11.562;2023-07-20T14:33:12;1.73;;;1.63;;
36585;SDS011;22591;48.314;11.562;2023-07-20T14:35:38;3.25;;;2.10;;
36585;SDS011;22591;48.314;11.562;2023-07-20T14:38:03;3.17;;;1.52;;
36585;SDS011;22591;48.314;11.562;2023-07-20T14:40:29;3.17;;;1.75;;
36585;SDS011;22591;48.314;11.562;2023-07-20T14:42:55;1.55;;;1.23;;
36585;SDS011;22591;48.314;11.562;2023-07-20T14:45:21;1.85;;;1.75;;
36585;SDS011;22591;48.314;11.562;2023-07-20T14:47:47;2.53;;;1.50;;
36585;SDS011;22591;48.314;11.562;2023-07-20T14:50:18;2.60;;;1.88;;
36585;SDS011;22591;48.314;11.562;2023-07-20T14:52:47;2.28;;;1.63;;